sensor_id;sensor_type;location;lat;lon;timestamp;P1;durP1;ratioP1;P2;durP2;ratioP2
12812;SDS011;6471;50.932;6.934;2023-04-06T00:00:45;8.50;;;6.13;;
12812;SDS011;6471;50.932;6.934;2023-04-06T00:03:12;9.10;;;6.07;;
12812;SDS011;6471;50.932;6.934;2023-04-06T00:05:38;8.53;;;5.73;;
12812;SDS011;6471;50.932;6.934;2023-04-06T00:08:04;9.73;;;6.03;;
12812;SDS011;6471;50.932;6.934;2023-04-06T00:10:30;9.20;;;5.60;;
12812;SDS011;6471;50.932;6.934;2023-04-06T00:12:57;8.17;;;6.17;;
12812;SDS011;6471;50.932;6.934;2023-04-06T00:15:24;9.07;;;5.93;;
12812;SDS011;6471;50.932;6.934;2023-04-06T00:17:50;8.77;;;5.93;;
12812;SDS011;6471;50.932;6.934;2023-04-06T00:20:17;9.87;;;6.40;;
12812;SDS011;6471;50.932;6.934;2023-04-06T00:22:43;8.93;;;6.23;;
12812;SDS011;6471;50.932;6.934;2023-04-06T00:25:09;9.73;;;6.60;;
12812;SDS011;6471;50.932;6.934;2023-04-06T00:27:36;10.47;;;6.60;;
12812;SDS011;6471;50.932;6.934;2023-04-06T00:30:03;8.97;;;5.93;;
12812;SDS011;6471;50.932;6.934;2023-04-06T00:32:30;8.67;;;6.03;;
12812;SDS011;6471;50.932;6.934;2023-04-06T00:34:56;9.70;;;6.30;;
12812;SDS011;6471;50.932;6.934;2023-04-06T00:37:22;10.23;;;6.17;;
12812;SDS011;6471;50.932;6.934;2023-04-06T00:39:49;9.63;;;6.83;;
12812;SDS011;6471;50.932;6.934;2023-04-06T00:42:16;11.00;;;6.37;;
12812;SDS011;6471;50.932;6.934;2023-04-06T00:44:50;9.27;;;6.53;;
12812;SDS011;6471;50.932;6.934;2023-04-06T00:47:16;8.47;;;5.97;;
12812;SDS011;6471;50.932;6.934;2023-04-06T00:49:42;9.37;;;6.63;;
12812;SDS011;6471;50.932;6.934;2023-04-06T00:52:08;9.90;;;6.30;;
12812;SDS011;6471;50.932;6.934;2023-04-06T00:54:35;9.83;;;6.23;;
12812;SDS011;6471;50.932;6.934;2023-04-06T00:57:01;8.93;;;6.13;;
12812;SDS011;6471;50.932;6.934;2023-04-06T00:59:27;12.83;;;7.13;;
12812;SDS011;6471;50.932;6.934;2023-04-06T01:01:54;10.57;;;6.40;;
12812;SDS011;6471;50.932;6.934;2023-04-06T01:04:20;9.43;;;5.90;;
12812;SDS011;6471;50.932;6.934;2023-04-06T01:06:50;8.53;;;6.00;;
12812;SDS011;6471;50.932;6.934;2023-04-06T01:09:16;7.70;;;5.37;;
12812;SDS011;6471;50.932;6.934;2023-04-06T01:11:43;7.63;;;5.17;;
12812;SDS011;6471;50.932;6.934;2023-04-06T01:14:09;7.93;;;5.83;;
12812;SDS011;6471;50.932;6.934;2023-04-06T01:16:35;8.70;;;5.60;;
12812;SDS011;6471;50.932;6.934;2023-04-06T01:19:06;7.87;;;5.20;;
12812;SDS011;6471;50.932;6.934;2023-04-06T01:21:33;6.03;;;4.57;;
12812;SDS011;6471;50.932;6.934;2023-04-06T01:23:59;6.77;;;4.53;;
12812;SDS011;6471;50.932;6.934;2023-04-06T01:26:26;7.57;;;4.70;;
12812;SDS011;6471;50.932;6.934;2023-04-06T01:28:54;7.17;;;5.50;;
12812;SDS011;6471;50.932;6.934;2023-04-06T01:31:20;7.73;;;5.20;;
12812;SDS011;6471;50.932;6.934;2023-04-06T01:33:46;6.50;;;4.83;;
12812;SDS011;6471;50.932;6.934;2023-04-06T01:36:12;6.43;;;4.70;;
12812;SDS011;6471;50.932;6.934;2023-04-06T01:38:39;6.97;;;4.67;;
12812;SDS011;6471;50.932;6.934;2023-04-06T01:41:06;5.90;;;4.50;;
12812;SDS011;6471;50.932;6.934;2023-04-06T01:43:32;6.90;;;4.17;;
12812;SDS011;6471;50.932;6.934;2023-04-06T01:45:58;6.93;;;4.83;;
12812;SDS011;6471;50.932;6.934;2023-04-06T01:48:25;6.60;;;4.60;;
12812;SDS011;6471;50.932;6.934;2023-04-06T01:50:51;6.63;;;5.30;;
12812;SDS011;6471;50.932;6.934;2023-04-06T01:53:17;6.63;;;4.90;;
12812;SDS011;6471;50.932;6.934;2023-04-06T01:55:44;7.30;;;5.03;;
12812;SDS011;6471;50.932;6.934;2023-04-06T01:58:10;5.17;;;4.03;;
12812;SDS011;6471;50.932;6.934;2023-04-06T02:00:36;5.57;;;4.43;;
12812;SDS011;6471;50.932;6.934;2023-04-06T02:03:02;6.17;;;4.33;;
12812;SDS011;6471;50.932;6.934;2023-04-06T02:05:29;6.77;;;4.53;;
12812;SDS011;6471;50.932;6.934;2023-04-06T02:07:56;5.73;;;4.40;;
12812;SDS011;6471;50.932;6.934;2023-04-06T02:10:22;5.53;;;4.53;;
12812;SDS011;6471;50.932;6.934;2023-04-06T02:12:49;8.20;;;5.77;;
12812;SDS011;6471;50.932;6.934;2023-04-06T02:15:15;8.07;;;5.10;;
12812;SDS011;6471;50.932;6.934;2023-04-06T02:17:42;6.83;;;5.00;;
12812;SDS011;6471;50.932;6.934;2023-04-06T02:20:08;6.10;;;4.17;;
12812;SDS011;6471;50.932;6.934;2023-04-06T02:22:34;6.07;;;4.60;;
12812;SDS011;6471;50.932;6.934;2023-04-06T02:25:01;7.43;;;4.20;;
12812;SDS011;6471;50.932;6.934;2023-04-06T02:27:27;6.17;;;4.40;;
12812;SDS011;6471;50.932;6.934;2023-04-06T02:29:53;6.63;;;4.47;;
12812;SDS011;6471;50.932;6.934;2023-04-06T02:32:19;6.33;;;4.20;;
12812;SDS011;6471;50.932;6.934;2023-04-06T02:34:45;5.93;;;4.10;;
12812;SDS011;6471;50.932;6.934;2023-04-06T02:37:11;6.43;;;4.60;;
12812;SDS011;6471;50.932;6.934;2023-04-06T02:39:37;6.33;;;4.47;;
12812;SDS011;6471;50.932;6.934;2023-04-06T02:42:04;7.37;;;4.60;;
12812;SDS011;6471;50.932;6.934;2023-04-06T02:44:30;7.47;;;4.37;;
12812;SDS011;6471;50.932;6.934;2023-04-06T02:46:56;6.33;;;4.60;;
12812;SDS011;6471;50.932;6.934;2023-04-06T02:49:22;5.97;;;4.33;;
12812;SDS011;6471;50.932;6.934;2023-04-06T02:51:48;7.13;;;4.70;;
12812;SDS011;6471;50.932;6.934;2023-04-06T02:54:14;6.90;;;5.03;;
12812;SDS011;6471;50.932;6.934;2023-04-06T02:56:40;7.20;;;4.47;;
12812;SDS011;6471;50.932;6.934;2023-04-06T02:59:06;6.57;;;4.30;;
12812;SDS011;6471;50.932;6.934;2023-04-06T03:01:32;6.73;;;4.97;;
12812;SDS011;6471;50.932;6.934;2023-04-06T03:03:58;5.63;;;4.10;;
12812;SDS011;6471;50.932;6.934;2023-04-06T03:06:25;4.93;;;3.87;;
12812;SDS011;6471;50.932;6.934;2023-04-06T03:08:51;6.63;;;4.40;;
12812;SDS011;6471;50.932;6.934;2023-04-06T03:11:17;4.90;;;4.10;;
12812;SDS011;6471;50.932;6.934;2023-04-06T03:13:44;6.17;;;4.30;;
12812;SDS011;6471;50.932;6.934;2023-04-06T03:16:10;5.57;;;4.10;;
12812;SDS011;6471;50.932;6.934;2023-04-06T03:18:36;5.50;;;4.07;;
12812;SDS011;6471;50.932;6.934;2023-04-06T03:21:02;5.70;;;4.07;;
12812;SDS011;6471;50.932;6.934;2023-04-06T03:23:28;5.83;;;4.20;;
12812;SDS011;6471;50.932;6.934;2023-04-06T03:25:54;6.20;;;4.63;;
12812;SDS011;6471;50.932;6.934;2023-04-06T03:28:20;6.57;;;4.33;;
12812;SDS011;6471;50.932;6.934;2023-04-06T03:30:47;5.50;;;4.33;;
12812;SDS011;6471;50.932;6.934;2023-04-06T03:33:13;6.80;;;4.60;;
12812;SDS011;6471;50.932;6.934;2023-04-06T03:35:39;4.80;;;3.83;;
12812;SDS011;6471;50.932;6.934;2023-04-06T03:38:05;6.67;;;4.97;;
12812;SDS011;6471;50.932;6.934;2023-04-06T03:40:31;5.73;;;4.30;;
12812;SDS011;6471;50.932;6.934;2023-04-06T03:42:57;6.53;;;4.50;;
12812;SDS011;6471;50.932;6.934;2023-04-06T03:45:23;6.00;;;3.93;;
12812;SDS011;6471;50.932;6.934;2023-04-06T03:47:49;5.93;;;4.23;;
12812;SDS011;6471;50.932;6.934;2023-04-06T03:50:16;7.33;;;4.70;;
12812;SDS011;6471;50.932;6.934;2023-04-06T03:52:42;6.20;;;4.17;;
12812;SDS011;6471;50.932;6.934;2023-04-06T03:55:08;6.03;;;4.27;;
12812;SDS011;6471;50.932;6.934;2023-04-06T03:57:34;6.83;;;4.40;;
12812;SDS011;6471;50.932;6.934;2023-04-06T04:00:00;5.10;;;4.13;;
12812;SDS011;6471;50.932;6.934;2023-04-06T04:02:27;6.20;;;4.50;;
12812;SDS011;6471;50.932;6.934;2023-04-06T04:04:53;5.33;;;4.07;;
12812;SDS011;6471;50.932;6.934;2023-04-06T04:07:19;5.97;;;4.20;;
12812;SDS011;6471;50.932;6.934;2023-04-06T04:09:45;7.20;;;4.43;;
12812;SDS011;6471;50.932;6.934;2023-04-06T04:12:11;4.77;;;3.63;;
12812;SDS011;6471;50.932;6.934;2023-04-06T04:14:39;4.90;;;3.80;;
12812;SDS011;6471;50.932;6.934;2023-04-06T04:17:05;5.47;;;4.43;;
12812;SDS011;6471;50.932;6.934;2023-04-06T04:19:31;4.97;;;3.93;;
12812;SDS011;6471;50.932;6.934;2023-04-06T04:21:57;5.70;;;4.50;;
12812;SDS011;6471;50.932;6.934;2023-04-06T04:24:23;6.73;;;4.37;;
12812;SDS011;6471;50.932;6.934;2023-04-06T04:26:49;6.47;;;4.30;;
12812;SDS011;6471;50.932;6.934;2023-04-06T04:29:15;5.43;;;4.20;;
12812;SDS011;6471;50.932;6.934;2023-04-06T04:31:42;6.33;;;4.47;;
12812;SDS011;6471;50.932;6.934;2023-04-06T04:34:08;5.70;;;4.17;;
12812;SDS011;6471;50.932;6.934;2023-04-06T04:36:34;5.63;;;4.40;;
12812;SDS011;6471;50.932;6.934;2023-04-06T04:39:00;5.67;;;4.37;;
12812;SDS011;6471;50.932;6.934;2023-04-06T04:41:26;6.43;;;4.63;;
12812;SDS011;6471;50.932;6.934;2023-04-06T04:43:52;6.13;;;4.50;;
12812;SDS011;6471;50.932;6.934;2023-04-06T04:46:18;5.23;;;4.10;;
12812;SDS011;6471;50.932;6.934;2023-04-06T04:48:44;6.30;;;4.47;;
12812;SDS011;6471;50.932;6.934;2023-04-06T05:09:22;6.03;;;4.87;;
12812;SDS011;6471;50.932;6.934;2023-04-06T05:11:48;7.60;;;5.00;;
12812;SDS011;6471;50.932;6.934;2023-04-06T05:14:14;6.33;;;5.00;;
12812;SDS011;6471;50.932;6.934;2023-04-06T05:16:40;6.13;;;4.60;;
12812;SDS011;6471;50.932;6.934;2023-04-06T05:19:06;7.00;;;4.97;;
12812;SDS011;6471;50.932;6.934;2023-04-06T05:21:32;7.20;;;5.50;;
12812;SDS011;6471;50.932;6.934;2023-04-06T05:23:58;8.53;;;5.50;;
12812;SDS011;6471;50.932;6.934;2023-04-06T05:26:27;7.03;;;5.40;;
12812;SDS011;6471;50.932;6.934;2023-04-06T05:28:53;6.50;;;5.40;;
12812;SDS011;6471;50.932;6.934;2023-04-06T05:31:20;8.57;;;5.57;;
12812;SDS011;6471;50.932;6.934;2023-04-06T05:33:46;8.70;;;5.00;;
12812;SDS011;6471;50.932;6.934;2023-04-06T05:36:12;8.07;;;5.40;;
12812;SDS011;6471;50.932;6.934;2023-04-06T05:38:38;7.70;;;5.43;;
12812;SDS011;6471;50.932;6.934;2023-04-06T05:41:04;6.43;;;4.97;;
12812;SDS011;6471;50.932;6.934;2023-04-06T05:43:30;6.03;;;4.60;;
12812;SDS011;6471;50.932;6.934;2023-04-06T05:45:56;6.17;;;4.73;;
12812;SDS011;6471;50.932;6.934;2023-04-06T05:48:22;7.00;;;4.87;;
12812;SDS011;6471;50.932;6.934;2023-04-06T05:50:49;39.73;;;11.67;;
12812;SDS011;6471;50.932;6.934;2023-04-06T05:53:15;24.20;;;9.33;;
12812;SDS011;6471;50.932;6.934;2023-04-06T05:55:41;15.90;;;6.70;;
12812;SDS011;6471;50.932;6.934;2023-04-06T05:58:08;10.73;;;5.97;;
12812;SDS011;6471;50.932;6.934;2023-04-06T06:00:35;7.83;;;5.33;;
12812;SDS011;6471;50.932;6.934;2023-04-06T06:03:01;7.77;;;5.40;;
12812;SDS011;6471;50.932;6.934;2023-04-06T06:05:29;8.63;;;5.67;;
12812;SDS011;6471;50.932;6.934;2023-04-06T06:07:55;9.03;;;6.10;;
12812;SDS011;6471;50.932;6.934;2023-04-06T06:10:21;6.90;;;5.27;;
12812;SDS011;6471;50.932;6.934;2023-04-06T06:12:47;6.43;;;5.07;;
12812;SDS011;6471;50.932;6.934;2023-04-06T06:15:13;7.17;;;5.20;;
12812;SDS011;6471;50.932;6.934;2023-04-06T06:17:40;7.47;;;5.70;;
12812;SDS011;6471;50.932;6.934;2023-04-06T06:20:07;7.40;;;5.30;;
12812;SDS011;6471;50.932;6.934;2023-04-06T06:22:33;7.60;;;5.50;;
12812;SDS011;6471;50.932;6.934;2023-04-06T06:24:59;9.47;;;5.90;;
12812;SDS011;6471;50.932;6.934;2023-04-06T06:27:25;8.13;;;6.00;;
12812;SDS011;6471;50.932;6.934;2023-04-06T06:29:51;7.73;;;5.13;;
12812;SDS011;6471;50.932;6.934;2023-04-06T06:32:18;7.63;;;5.17;;
12812;SDS011;6471;50.932;6.934;2023-04-06T06:34:44;6.33;;;5.20;;
12812;SDS011;6471;50.932;6.934;2023-04-06T06:37:10;6.97;;;4.47;;
12812;SDS011;6471;50.932;6.934;2023-04-06T06:39:36;6.10;;;4.97;;
12812;SDS011;6471;50.932;6.934;2023-04-06T06:42:02;7.27;;;5.13;;
12812;SDS011;6471;50.932;6.934;2023-04-06T06:44:28;6.57;;;4.97;;
12812;SDS011;6471;50.932;6.934;2023-04-06T06:46:54;9.80;;;6.53;;
12812;SDS011;6471;50.932;6.934;2023-04-06T06:49:20;6.83;;;5.70;;
12812;SDS011;6471;50.932;6.934;2023-04-06T06:51:46;9.37;;;5.90;;
12812;SDS011;6471;50.932;6.934;2023-04-06T06:54:13;7.57;;;5.93;;
12812;SDS011;6471;50.932;6.934;2023-04-06T06:56:39;7.97;;;5.80;;
12812;SDS011;6471;50.932;6.934;2023-04-06T06:59:05;8.17;;;5.80;;
12812;SDS011;6471;50.932;6.934;2023-04-06T07:01:32;8.47;;;5.83;;
12812;SDS011;6471;50.932;6.934;2023-04-06T07:03:59;9.30;;;6.70;;
12812;SDS011;6471;50.932;6.934;2023-04-06T07:06:25;9.03;;;6.40;;
12812;SDS011;6471;50.932;6.934;2023-04-06T07:08:51;7.30;;;5.73;;
12812;SDS011;6471;50.932;6.934;2023-04-06T07:11:19;6.83;;;5.20;;
12812;SDS011;6471;50.932;6.934;2023-04-06T07:13:45;7.63;;;5.40;;
12812;SDS011;6471;50.932;6.934;2023-04-06T07:16:11;7.73;;;5.47;;
12812;SDS011;6471;50.932;6.934;2023-04-06T07:18:37;8.03;;;5.63;;
12812;SDS011;6471;50.932;6.934;2023-04-06T07:21:06;7.93;;;6.00;;
12812;SDS011;6471;50.932;6.934;2023-04-06T07:23:32;9.20;;;6.67;;
12812;SDS011;6471;50.932;6.934;2023-04-06T07:25:59;11.97;;;6.83;;
12812;SDS011;6471;50.932;6.934;2023-04-06T07:28:25;10.93;;;6.90;;
12812;SDS011;6471;50.932;6.934;2023-04-06T07:30:51;8.60;;;6.00;;
12812;SDS011;6471;50.932;6.934;2023-04-06T07:33:18;7.97;;;6.00;;
12812;SDS011;6471;50.932;6.934;2023-04-06T07:35:44;9.10;;;5.50;;
12812;SDS011;6471;50.932;6.934;2023-04-06T07:38:10;7.37;;;5.73;;
12812;SDS011;6471;50.932;6.934;2023-04-06T07:40:36;10.70;;;6.30;;
12812;SDS011;6471;50.932;6.934;2023-04-06T07:43:03;8.50;;;6.30;;
12812;SDS011;6471;50.932;6.934;2023-04-06T07:45:29;9.30;;;5.93;;
12812;SDS011;6471;50.932;6.934;2023-04-06T07:47:55;6.83;;;5.37;;
12812;SDS011;6471;50.932;6.934;2023-04-06T07:50:22;7.33;;;5.63;;
12812;SDS011;6471;50.932;6.934;2023-04-06T07:52:48;7.30;;;5.77;;
12812;SDS011;6471;50.932;6.934;2023-04-06T07:55:14;6.83;;;5.17;;
12812;SDS011;6471;50.932;6.934;2023-04-06T07:57:40;8.70;;;5.83;;
12812;SDS011;6471;50.932;6.934;2023-04-06T08:00:06;8.10;;;5.97;;
12812;SDS011;6471;50.932;6.934;2023-04-06T08:02:34;7.53;;;5.50;;
12812;SDS011;6471;50.932;6.934;2023-04-06T08:05:00;8.10;;;6.00;;
12812;SDS011;6471;50.932;6.934;2023-04-06T08:07:26;8.50;;;6.77;;
12812;SDS011;6471;50.932;6.934;2023-04-06T08:09:53;9.30;;;6.83;;
12812;SDS011;6471;50.932;6.934;2023-04-06T08:12:19;9.03;;;6.23;;
12812;SDS011;6471;50.932;6.934;2023-04-06T08:14:45;7.73;;;6.17;;
12812;SDS011;6471;50.932;6.934;2023-04-06T08:17:12;9.63;;;6.50;;
12812;SDS011;6471;50.932;6.934;2023-04-06T08:19:38;8.67;;;6.00;;
12812;SDS011;6471;50.932;6.934;2023-04-06T08:22:04;9.87;;;6.43;;
12812;SDS011;6471;50.932;6.934;2023-04-06T08:24:30;6.60;;;5.40;;
12812;SDS011;6471;50.932;6.934;2023-04-06T08:26:57;10.10;;;6.00;;
12812;SDS011;6471;50.932;6.934;2023-04-06T08:29:23;10.03;;;6.10;;
12812;SDS011;6471;50.932;6.934;2023-04-06T08:31:49;9.73;;;6.90;;
12812;SDS011;6471;50.932;6.934;2023-04-06T08:34:15;7.80;;;6.07;;
12812;SDS011;6471;50.932;6.934;2023-04-06T08:36:41;6.87;;;5.57;;
12812;SDS011;6471;50.932;6.934;2023-04-06T08:39:09;7.40;;;5.60;;
12812;SDS011;6471;50.932;6.934;2023-04-06T08:41:35;9.37;;;6.43;;
12812;SDS011;6471;50.932;6.934;2023-04-06T08:44:01;7.77;;;5.83;;
12812;SDS011;6471;50.932;6.934;2023-04-06T08:46:28;9.40;;;6.33;;
12812;SDS011;6471;50.932;6.934;2023-04-06T08:48:57;7.87;;;5.73;;
12812;SDS011;6471;50.932;6.934;2023-04-06T08:51:27;7.93;;;5.57;;
12812;SDS011;6471;50.932;6.934;2023-04-06T08:53:54;8.47;;;6.30;;
12812;SDS011;6471;50.932;6.934;2023-04-06T08:56:29;8.57;;;6.27;;
12812;SDS011;6471;50.932;6.934;2023-04-06T08:58:55;8.13;;;6.00;;
12812;SDS011;6471;50.932;6.934;2023-04-06T09:01:27;9.93;;;6.40;;
12812;SDS011;6471;50.932;6.934;2023-04-06T09:03:58;8.30;;;6.40;;
12812;SDS011;6471;50.932;6.934;2023-04-06T09:06:25;9.83;;;6.73;;
12812;SDS011;6471;50.932;6.934;2023-04-06T09:08:52;11.17;;;7.10;;
12812;SDS011;6471;50.932;6.934;2023-04-06T09:11:18;11.23;;;7.20;;
12812;SDS011;6471;50.932;6.934;2023-04-06T09:13:52;13.27;;;8.80;;
12812;SDS011;6471;50.932;6.934;2023-04-06T09:16:18;10.83;;;7.00;;
12812;SDS011;6471;50.932;6.934;2023-04-06T09:18:45;9.37;;;6.20;;
12812;SDS011;6471;50.932;6.934;2023-04-06T09:21:11;9.73;;;6.57;;
12812;SDS011;6471;50.932;6.934;2023-04-06T09:23:37;8.73;;;6.60;;
12812;SDS011;6471;50.932;6.934;2023-04-06T09:26:05;7.90;;;5.77;;
12812;SDS011;6471;50.932;6.934;2023-04-06T09:31:29;7.97;;;5.67;;
12812;SDS011;6471;50.932;6.934;2023-04-06T09:33:57;7.97;;;5.87;;
12812;SDS011;6471;50.932;6.934;2023-04-06T09:36:30;7.23;;;5.57;;
12812;SDS011;6471;50.932;6.934;2023-04-06T09:38:58;9.20;;;6.33;;
12812;SDS011;6471;50.932;6.934;2023-04-06T09:41:25;10.87;;;6.33;;
12812;SDS011;6471;50.932;6.934;2023-04-06T09:43:51;8.00;;;5.73;;
12812;SDS011;6471;50.932;6.934;2023-04-06T09:46:18;8.53;;;5.73;;
12812;SDS011;6471;50.932;6.934;2023-04-06T09:48:47;9.80;;;7.00;;
12812;SDS011;6471;50.932;6.934;2023-04-06T09:51:14;11.07;;;7.70;;
12812;SDS011;6471;50.932;6.934;2023-04-06T09:53:41;9.27;;;6.57;;
12812;SDS011;6471;50.932;6.934;2023-04-06T09:56:08;8.90;;;5.93;;
12812;SDS011;6471;50.932;6.934;2023-04-06T09:58:38;7.33;;;5.60;;
12812;SDS011;6471;50.932;6.934;2023-04-06T10:01:09;10.33;;;6.40;;
12812;SDS011;6471;50.932;6.934;2023-04-06T10:03:39;8.83;;;6.07;;
12812;SDS011;6471;50.932;6.934;2023-04-06T10:06:09;11.60;;;6.37;;
12812;SDS011;6471;50.932;6.934;2023-04-06T10:08:37;7.77;;;5.73;;
12812;SDS011;6471;50.932;6.934;2023-04-06T10:11:05;8.90;;;5.80;;
12812;SDS011;6471;50.932;6.934;2023-04-06T10:13:32;8.50;;;5.67;;
12812;SDS011;6471;50.932;6.934;2023-04-06T10:15:59;8.83;;;5.67;;
12812;SDS011;6471;50.932;6.934;2023-04-06T10:18:26;9.27;;;5.90;;
12812;SDS011;6471;50.932;6.934;2023-04-06T10:23:56;7.93;;;5.50;;
12812;SDS011;6471;50.932;6.934;2023-04-06T10:26:24;7.70;;;5.40;;
12812;SDS011;6471;50.932;6.934;2023-04-06T10:28:50;9.93;;;5.83;;
12812;SDS011;6471;50.932;6.934;2023-04-06T10:31:26;7.10;;;5.17;;
12812;SDS011;6471;50.932;6.934;2023-04-06T10:36:22;10.30;;;6.67;;
12812;SDS011;6471;50.932;6.934;2023-04-06T10:38:53;8.63;;;6.10;;
12812;SDS011;6471;50.932;6.934;2023-04-06T10:41:20;7.77;;;5.90;;
12812;SDS011;6471;50.932;6.934;2023-04-06T10:43:54;13.13;;;6.80;;
12812;SDS011;6471;50.932;6.934;2023-04-06T10:46:25;8.57;;;5.60;;
12812;SDS011;6471;50.932;6.934;2023-04-06T10:48:51;8.07;;;5.80;;
12812;SDS011;6471;50.932;6.934;2023-04-06T10:51:18;8.07;;;5.80;;
12812;SDS011;6471;50.932;6.934;2023-04-06T10:53:46;11.50;;;6.53;;
12812;SDS011;6471;50.932;6.934;2023-04-06T10:56:14;8.13;;;5.77;;
12812;SDS011;6471;50.932;6.934;2023-04-06T10:58:46;8.27;;;5.50;;
12812;SDS011;6471;50.932;6.934;2023-04-06T11:01:16;7.17;;;5.20;;
12812;SDS011;6471;50.932;6.934;2023-04-06T11:03:45;6.93;;;4.40;;
12812;SDS011;6471;50.932;6.934;2023-04-06T11:06:20;8.60;;;5.70;;
12812;SDS011;6471;50.932;6.934;2023-04-06T11:08:46;9.23;;;5.90;;
12812;SDS011;6471;50.932;6.934;2023-04-06T11:11:13;9.90;;;6.10;;
12812;SDS011;6471;50.932;6.934;2023-04-06T11:16:15;11.73;;;7.07;;
12812;SDS011;6471;50.932;6.934;2023-04-06T11:18:52;10.13;;;6.43;;
12812;SDS011;6471;50.932;6.934;2023-04-06T11:21:19;10.23;;;6.30;;
12812;SDS011;6471;50.932;6.934;2023-04-06T11:23:46;9.87;;;6.47;;
12812;SDS011;6471;50.932;6.934;2023-04-06T11:26:17;10.60;;;6.50;;
12812;SDS011;6471;50.932;6.934;2023-04-06T11:29:08;12.70;;;7.33;;
12812;SDS011;6471;50.932;6.934;2023-04-06T11:31:39;13.63;;;8.63;;
12812;SDS011;6471;50.932;6.934;2023-04-06T11:34:19;11.97;;;7.93;;
12812;SDS011;6471;50.932;6.934;2023-04-06T11:39:49;13.73;;;7.77;;
12812;SDS011;6471;50.932;6.934;2023-04-06T11:43:00;10.10;;;6.83;;
12812;SDS011;6471;50.932;6.934;2023-04-06T13:21:54;7.10;;;5.30;;
12812;SDS011;6471;50.932;6.934;2023-04-06T13:31:27;6.83;;;4.60;;
12812;SDS011;6471;50.932;6.934;2023-04-06T13:33:53;7.20;;;4.93;;
12812;SDS011;6471;50.932;6.934;2023-04-06T13:36:19;6.27;;;4.73;;
12812;SDS011;6471;50.932;6.934;2023-04-06T13:38:46;10.20;;;5.60;;
12812;SDS011;6471;50.932;6.934;2023-04-06T13:41:22;9.10;;;5.47;;
12812;SDS011;6471;50.932;6.934;2023-04-06T13:43:48;7.87;;;5.20;;
12812;SDS011;6471;50.932;6.934;2023-04-06T13:46:15;7.70;;;5.00;;
12812;SDS011;6471;50.932;6.934;2023-04-06T13:48:41;8.47;;;5.80;;
12812;SDS011;6471;50.932;6.934;2023-04-06T13:51:13;6.40;;;5.00;;
12812;SDS011;6471;50.932;6.934;2023-04-06T13:53:40;8.00;;;5.47;;
12812;SDS011;6471;50.932;6.934;2023-04-06T13:56:06;8.20;;;5.63;;
12812;SDS011;6471;50.932;6.934;2023-04-06T13:58:33;6.80;;;4.90;;
12812;SDS011;6471;50.932;6.934;2023-04-06T14:03:33;8.47;;;5.33;;
12812;SDS011;6471;50.932;6.934;2023-04-06T14:06:00;5.97;;;4.43;;
12812;SDS011;6471;50.932;6.934;2023-04-06T14:08:26;4.93;;;3.87;;
12812;SDS011;6471;50.932;6.934;2023-04-06T14:10:52;6.37;;;4.10;;
12812;SDS011;6471;50.932;6.934;2023-04-06T14:13:19;7.60;;;5.03;;
12812;SDS011;6471;50.932;6.934;2023-04-06T14:15:45;8.73;;;5.13;;
12812;SDS011;6471;50.932;6.934;2023-04-06T14:18:11;6.13;;;4.40;;
12812;SDS011;6471;50.932;6.934;2023-04-06T14:20:37;5.10;;;3.90;;
12812;SDS011;6471;50.932;6.934;2023-04-06T14:23:04;8.23;;;4.47;;
12812;SDS011;6471;50.932;6.934;2023-04-06T14:25:30;5.63;;;4.43;;
12812;SDS011;6471;50.932;6.934;2023-04-06T14:27:56;6.80;;;5.00;;
12812;SDS011;6471;50.932;6.934;2023-04-06T14:30:23;6.80;;;4.50;;
12812;SDS011;6471;50.932;6.934;2023-04-06T14:32:49;6.37;;;4.53;;
12812;SDS011;6471;50.932;6.934;2023-04-06T14:35:15;7.03;;;4.00;;
12812;SDS011;6471;50.932;6.934;2023-04-06T14:37:41;5.87;;;4.77;;
12812;SDS011;6471;50.932;6.934;2023-04-06T14:40:07;5.30;;;3.90;;
12812;SDS011;6471;50.932;6.934;2023-04-06T14:42:33;5.70;;;3.90;;
12812;SDS011;6471;50.932;6.934;2023-04-06T14:45:04;5.90;;;4.10;;
12812;SDS011;6471;50.932;6.934;2023-04-06T14:47:31;5.87;;;4.20;;
12812;SDS011;6471;50.932;6.934;2023-04-06T14:49:57;6.20;;;4.30;;
12812;SDS011;6471;50.932;6.934;2023-04-06T14:52:23;6.17;;;4.60;;
12812;SDS011;6471;50.932;6.934;2023-04-06T14:54:49;6.07;;;4.13;;
12812;SDS011;6471;50.932;6.934;2023-04-06T14:57:15;5.17;;;3.80;;
12812;SDS011;6471;50.932;6.934;2023-04-06T14:59:41;5.37;;;3.80;;
12812;SDS011;6471;50.932;6.934;2023-04-06T15:02:07;5.43;;;3.50;;
12812;SDS011;6471;50.932;6.934;2023-04-06T15:04:34;5.73;;;3.70;;
12812;SDS011;6471;50.932;6.934;2023-04-06T15:07:01;6.30;;;4.00;;
12812;SDS011;6471;50.932;6.934;2023-04-06T15:09:27;6.33;;;3.90;;
12812;SDS011;6471;50.932;6.934;2023-04-06T15:11:53;4.80;;;3.97;;
12812;SDS011;6471;50.932;6.934;2023-04-06T15:14:20;5.90;;;4.07;;
12812;SDS011;6471;50.932;6.934;2023-04-06T15:16:46;5.70;;;4.13;;
12812;SDS011;6471;50.932;6.934;2023-04-06T15:19:12;5.47;;;4.10;;
12812;SDS011;6471;50.932;6.934;2023-04-06T15:21:38;6.20;;;4.53;;
12812;SDS011;6471;50.932;6.934;2023-04-06T15:24:05;5.03;;;4.03;;
12812;SDS011;6471;50.932;6.934;2023-04-06T15:26:34;7.13;;;4.90;;
12812;SDS011;6471;50.932;6.934;2023-04-06T15:29:00;6.20;;;5.00;;
12812;SDS011;6471;50.932;6.934;2023-04-06T15:31:26;6.37;;;4.83;;
12812;SDS011;6471;50.932;6.934;2023-04-06T15:33:53;6.97;;;4.50;;
12812;SDS011;6471;50.932;6.934;2023-04-06T15:36:25;7.73;;;5.00;;
12812;SDS011;6471;50.932;6.934;2023-04-06T15:38:53;8.80;;;5.50;;
12812;SDS011;6471;50.932;6.934;2023-04-06T15:41:23;7.50;;;5.03;;
12812;SDS011;6471;50.932;6.934;2023-04-06T15:43:52;6.17;;;4.50;;
12812;SDS011;6471;50.932;6.934;2023-04-06T15:46:19;5.83;;;4.47;;
12812;SDS011;6471;50.932;6.934;2023-04-06T15:48:46;7.83;;;5.70;;
12812;SDS011;6471;50.932;6.934;2023-04-06T15:51:12;7.73;;;4.87;;
12812;SDS011;6471;50.932;6.934;2023-04-06T15:53:38;7.13;;;4.87;;
12812;SDS011;6471;50.932;6.934;2023-04-06T15:56:05;6.90;;;4.90;;
12812;SDS011;6471;50.932;6.934;2023-04-06T15:58:33;8.73;;;5.63;;
12812;SDS011;6471;50.932;6.934;2023-04-06T16:01:00;5.83;;;4.63;;
12812;SDS011;6471;50.932;6.934;2023-04-06T16:03:26;6.67;;;4.70;;
12812;SDS011;6471;50.932;6.934;2023-04-06T16:05:52;5.70;;;4.40;;
12812;SDS011;6471;50.932;6.934;2023-04-06T16:08:19;6.77;;;4.30;;
12812;SDS011;6471;50.932;6.934;2023-04-06T16:10:45;7.73;;;4.97;;
12812;SDS011;6471;50.932;6.934;2023-04-06T16:13:11;5.57;;;4.47;;
12812;SDS011;6471;50.932;6.934;2023-04-06T16:15:37;7.63;;;5.00;;
12812;SDS011;6471;50.932;6.934;2023-04-06T16:18:03;8.60;;;5.17;;
12812;SDS011;6471;50.932;6.934;2023-04-06T16:20:30;7.47;;;5.43;;
12812;SDS011;6471;50.932;6.934;2023-04-06T16:22:56;7.67;;;5.23;;
12812;SDS011;6471;50.932;6.934;2023-04-06T16:25:22;7.33;;;5.60;;
12812;SDS011;6471;50.932;6.934;2023-04-06T16:27:48;8.33;;;5.63;;
12812;SDS011;6471;50.932;6.934;2023-04-06T16:30:14;9.17;;;6.70;;
12812;SDS011;6471;50.932;6.934;2023-04-06T16:32:41;8.63;;;6.27;;
12812;SDS011;6471;50.932;6.934;2023-04-06T16:35:08;8.93;;;5.90;;
12812;SDS011;6471;50.932;6.934;2023-04-06T16:37:34;8.47;;;5.80;;
12812;SDS011;6471;50.932;6.934;2023-04-06T16:40:01;7.40;;;5.20;;
12812;SDS011;6471;50.932;6.934;2023-04-06T16:42:27;7.60;;;5.27;;
12812;SDS011;6471;50.932;6.934;2023-04-06T16:44:53;8.07;;;5.30;;
12812;SDS011;6471;50.932;6.934;2023-04-06T16:47:19;7.37;;;4.67;;
12812;SDS011;6471;50.932;6.934;2023-04-06T16:49:45;8.37;;;5.80;;
12812;SDS011;6471;50.932;6.934;2023-04-06T16:52:11;7.43;;;5.37;;
12812;SDS011;6471;50.932;6.934;2023-04-06T16:54:38;8.40;;;6.57;;
12812;SDS011;6471;50.932;6.934;2023-04-06T16:57:04;7.87;;;5.83;;
12812;SDS011;6471;50.932;6.934;2023-04-06T16:59:30;9.20;;;6.80;;
12812;SDS011;6471;50.932;6.934;2023-04-06T17:01:56;8.23;;;6.03;;
12812;SDS011;6471;50.932;6.934;2023-04-06T17:04:22;7.80;;;5.60;;
12812;SDS011;6471;50.932;6.934;2023-04-06T17:06:48;7.80;;;5.63;;
12812;SDS011;6471;50.932;6.934;2023-04-06T17:09:14;7.37;;;5.40;;
12812;SDS011;6471;50.932;6.934;2023-04-06T17:11:41;7.37;;;5.20;;
12812;SDS011;6471;50.932;6.934;2023-04-06T17:14:07;8.40;;;5.60;;
12812;SDS011;6471;50.932;6.934;2023-04-06T17:16:34;7.23;;;6.00;;